createdAt,value
2019-04-07T00:01:14.583Z,9.82
2019-04-07T00:06:13.477Z,9.69
2019-04-07T00:11:10.636Z,9.48
2019-04-07T00:16:07.682Z,9.47
2019-04-07T00:21:07.636Z,9.49
2019-04-07T00:26:05.096Z,9.33
2019-04-07T00:31:02.511Z,9.26
2019-04-07T00:36:00.199Z,9.12
2019-04-07T00:40:57.895Z,8.97
2019-04-07T00:45:55.917Z,8.89
2019-04-07T00:50:53.802Z,8.81
2019-04-07T00:55:50.834Z,8.87
2019-04-07T01:00:48.086Z,8.82
2019-04-07T01:05:45.757Z,8.70
2019-04-07T01:10:43.192Z,8.57
2019-04-07T01:15:40.653Z,8.51
2019-04-07T01:20:37.843Z,8.25
2019-04-07T01:25:35.602Z,8.40
2019-04-07T01:30:32.905Z,8.34
2019-04-07T01:35:30.431Z,8.30
2019-04-07T01:40:27.609Z,8.25
2019-04-07T01:45:33.346Z,8.04
2019-04-07T01:50:31.176Z,7.89
2019-04-07T01:55:34.502Z,7.75
2019-04-07T02:00:45.502Z,7.85
2019-04-07T02:05:58.385Z,7.77
2019-04-07T02:10:50.647Z,7.75
2019-04-07T02:15:49.634Z,7.78
2019-04-07T02:21:04.446Z,7.59
2019-04-07T02:26:22.384Z,7.50
2019-04-07T02:31:24.958Z,7.34
2019-04-07T02:36:31.741Z,7.14
2019-04-07T02:41:48.605Z,7.30
2019-04-07T02:46:54.686Z,7.22
2019-04-07T02:51:56.441Z,7.21
2019-04-07T02:56:56.049Z,7.47
2019-04-07T03:01:56.181Z,7.42
2019-04-07T03:06:59.012Z,7.63
2019-04-07T03:11:56.443Z,7.45
2019-04-07T03:16:58.176Z,7.24
2019-04-07T03:22:06.570Z,7.05
2019-04-07T03:27:10.111Z,7.10
2019-04-07T03:32:27.548Z,6.86
2019-04-07T03:37:38.863Z,6.67
2019-04-07T03:42:37.038Z,6.74
2019-04-07T03:47:39.579Z,6.61
2019-04-07T03:52:46.766Z,6.62
2019-04-07T03:57:46.338Z,6.60
2019-04-07T04:02:57.574Z,6.57
2019-04-07T04:07:59.592Z,6.42
2019-04-07T04:13:01.083Z,6.59
2019-04-07T04:17:58.354Z,6.43
2019-04-07T04:22:55.403Z,6.44
2019-04-07T04:27:52.912Z,6.52
2019-04-07T04:32:50.117Z,6.33
2019-04-07T04:37:51.474Z,6.39
2019-04-07T04:42:46.166Z,6.69
2019-04-07T04:47:43.249Z,6.82
2019-04-07T04:52:40.768Z,6.89
2019-04-07T04:57:38.004Z,7.00
2019-04-07T05:02:35.970Z,7.24
2019-04-07T05:07:46.848Z,7.68
2019-04-07T05:12:32.263Z,8.23
2019-04-07T05:17:29.410Z,8.14
2019-04-07T05:22:26.757Z,8.53
2019-04-07T05:27:23.938Z,8.74
2019-04-07T05:32:21.236Z,9.19
2019-04-07T05:37:18.809Z,10.08
2019-04-07T05:42:16.634Z,11.67
2019-04-07T05:47:14.679Z,12.90
2019-04-07T05:52:12.796Z,13.85
2019-04-07T05:57:09.785Z,14.52
2019-04-07T06:02:08.964Z,15.08
2019-04-07T06:07:06.931Z,15.07
2019-04-07T06:12:08.488Z,14.98
2019-04-07T06:17:03.199Z,14.68
2019-04-07T06:22:00.361Z,14.71
2019-04-07T06:26:57.568Z,14.70
2019-04-07T06:31:54.930Z,15.17
2019-04-07T06:36:55.254Z,14.63
2019-04-07T06:41:52.496Z,15.55
2019-04-07T06:46:51.407Z,15.07
2019-04-07T06:52:02.955Z,14.17
2019-04-07T06:56:58.981Z,13.62
2019-04-07T07:02:22.412Z,14.38
2019-04-07T07:07:19.164Z,14.39
2019-04-07T07:12:38.448Z,14.86
2019-04-07T07:17:34.420Z,15.49
2019-04-07T07:22:41.484Z,15.61
2019-04-07T07:27:41.027Z,15.63
2019-04-07T07:32:38.848Z,15.87
2019-04-07T07:37:36.044Z,16.13
2019-04-07T07:42:37.600Z,16.34
2019-04-07T07:47:38.403Z,16.44
2019-04-07T07:52:37.690Z,16.54
2019-04-07T07:57:39.461Z,16.43
2019-04-07T08:02:36.560Z,16.72
2019-04-07T08:07:34.776Z,17.16
2019-04-07T08:12:34.428Z,17.48
2019-04-07T08:17:33.114Z,17.85
2019-04-07T08:22:33.789Z,18.52
2019-04-07T08:27:31.040Z,18.34
2019-04-07T08:32:30.822Z,18.76
2019-04-07T08:37:28.621Z,17.74
2019-04-07T08:42:25.866Z,17.74
2019-04-07T08:47:23.449Z,17.53
2019-04-07T08:52:21.101Z,17.84
2019-04-07T08:57:18.174Z,18.59
2019-04-07T09:02:15.327Z,17.26
2019-04-07T09:07:12.392Z,17.82
2019-04-07T09:12:10.319Z,19.03
2019-04-07T09:17:08.218Z,18.89
2019-04-07T09:22:12.898Z,19.05
2019-04-07T09:27:23.332Z,18.66
2019-04-07T09:32:32.054Z,18.45
2019-04-07T09:37:36.746Z,18.78
2019-04-07T09:42:35.603Z,19.19
2019-04-07T09:47:34.741Z,18.78
2019-04-07T09:52:52.308Z,19.06
2019-04-07T09:58:09.262Z,19.05
2019-04-07T10:03:23.368Z,18.64
2019-04-07T10:08:22.265Z,18.99
2019-04-07T10:13:21.748Z,19.05
2019-04-07T10:18:20.635Z,17.96
2019-04-07T10:23:19.666Z,17.84
2019-04-07T10:28:26.480Z,18.03
2019-04-07T10:33:23.761Z,18.56
2019-04-07T10:38:28.031Z,18.46
2019-04-07T10:43:35.038Z,18.61
2019-04-07T10:48:40.869Z,18.76
2019-04-07T10:53:40.499Z,18.42
2019-04-07T10:58:41.410Z,18.43
2019-04-07T11:03:40.514Z,18.51
2019-04-07T11:08:47.658Z,18.49
2019-04-07T11:13:53.414Z,18.47
2019-04-07T11:18:54.896Z,18.77
2019-04-07T11:24:05.490Z,18.95
2019-04-07T11:29:11.031Z,19.41
2019-04-07T11:34:15.142Z,19.94
2019-04-07T11:39:24.481Z,20.29
2019-04-07T11:44:31.052Z,20.93
2019-04-07T11:49:46.715Z,21.69
2019-04-07T11:54:57.775Z,20.44
2019-04-07T11:59:57.530Z,20.27
2019-04-07T12:05:11.682Z,21.29
2019-04-07T12:10:27.485Z,21.89
2019-04-07T12:15:35.370Z,22.27
2019-04-07T12:20:47.215Z,21.73
2019-04-07T12:25:52.741Z,21.07
2019-04-07T12:31:05.388Z,20.77
2019-04-07T12:36:06.201Z,21.29
2019-04-07T12:41:19.733Z,21.28
2019-04-07T12:46:16.538Z,21.97
2019-04-07T12:51:32.813Z,21.99
2019-04-07T12:56:47.641Z,21.62
2019-04-07T13:01:47.539Z,22.03
2019-04-07T13:06:48.032Z,22.20
2019-04-07T13:11:49.700Z,22.51
2019-04-07T13:17:05.355Z,22.48
2019-04-07T13:22:21.535Z,22.01
2019-04-07T13:27:38.946Z,21.51
2019-04-07T13:32:42.835Z,21.78
2019-04-07T13:37:41.278Z,21.89
2019-04-07T13:42:37.888Z,22.26
2019-04-07T13:47:43.605Z,22.67
2019-04-07T13:52:46.429Z,22.15
2019-04-07T13:58:00.812Z,22.37
2019-04-07T14:03:01.393Z,22.19
2019-04-07T14:08:07.106Z,22.48
2019-04-07T14:13:13.653Z,22.61
2019-04-07T14:18:13.417Z,22.73
2019-04-07T14:23:30.158Z,23.03
2019-04-07T14:28:35.702Z,22.76
2019-04-07T14:33:46.948Z,22.62
2019-04-07T14:38:47.650Z,22.51
2019-04-07T14:44:00.864Z,22.40
2019-04-07T14:49:00.020Z,21.83
2019-04-07T14:54:02.843Z,21.75
2019-04-07T14:59:08.080Z,21.51
2019-04-07T15:04:05.264Z,21.23
2019-04-07T15:09:08.262Z,21.12
2019-04-07T15:14:06.566Z,21.15
2019-04-07T15:19:04.580Z,20.79
2019-04-07T15:24:04.065Z,20.42
2019-04-07T15:29:04.643Z,20.39
2019-04-07T15:34:04.106Z,20.32
2019-04-07T15:39:01.473Z,20.05
2019-04-07T15:44:05.080Z,19.82
2019-04-07T15:49:00.135Z,19.82
2019-04-07T15:53:57.210Z,19.61
2019-04-07T15:58:58.211Z,19.60
2019-04-07T16:03:54.730Z,19.57
2019-04-07T16:08:51.991Z,19.52
2019-04-07T16:13:49.531Z,19.51
2019-04-07T16:18:46.681Z,19.37
2019-04-07T16:23:48.734Z,19.31
2019-04-07T16:28:46.198Z,19.21
2019-04-07T16:33:42.988Z,18.96
2019-04-07T16:38:40.689Z,18.77
2019-04-07T16:43:39.828Z,18.56
2019-04-07T16:48:40.229Z,18.30
2019-04-07T16:53:39.089Z,17.97
2019-04-07T16:58:38.523Z,17.70
2019-04-07T17:03:35.462Z,17.22
2019-04-07T17:08:32.679Z,16.94
2019-04-07T17:13:38.135Z,16.71
2019-04-07T17:18:38.913Z,16.40
2019-04-07T17:23:36.604Z,16.20
2019-04-07T17:28:36.489Z,15.73
2019-04-07T17:33:36.828Z,15.12
2019-04-07T17:38:41.055Z,15.14
2019-04-07T17:49:01.217Z,14.90
2019-04-07T17:54:20.885Z,14.66
2019-04-07T17:59:34.788Z,14.60
2019-04-07T18:04:42.918Z,14.39
2019-04-07T18:09:42.168Z,14.21
2019-04-07T18:14:57.053Z,14.07
2019-04-07T18:19:53.688Z,13.89
2019-04-07T18:24:53.489Z,13.70
2019-04-07T18:29:50.493Z,13.54
2019-04-07T18:35:06.464Z,13.28
2019-04-07T18:40:08.865Z,13.22
2019-04-07T18:45:12.282Z,13.17
2019-04-07T18:50:23.840Z,13.04
2019-04-07T18:55:37.203Z,12.93
2019-04-07T19:00:45.476Z,12.77
2019-04-07T19:05:58.575Z,12.70
2019-04-07T19:11:14.936Z,12.53
2019-04-07T19:16:21.388Z,12.22
2019-04-07T19:21:25.113Z,12.04
2019-04-07T19:26:34.729Z,12.02
2019-04-07T19:31:48.085Z,11.90
2019-04-07T19:36:56.607Z,11.69
2019-04-07T19:42:04.567Z,11.61
2019-04-07T19:47:17.017Z,11.61
2019-04-07T19:52:20.920Z,11.51
2019-04-07T19:57:23.799Z,11.29
2019-04-07T20:02:22.769Z,11.23
2019-04-07T20:07:35.289Z,10.99
2019-04-07T20:12:43.895Z,10.83
2019-04-07T20:17:52.673Z,10.90
2019-04-07T20:23:06.400Z,10.73
2019-04-07T20:28:08.749Z,10.58
2019-04-07T20:33:24.925Z,10.32
2019-04-07T20:38:40.329Z,10.35
2019-04-07T20:43:37.283Z,10.36
2019-04-07T20:48:53.797Z,10.34
2019-04-07T20:54:03.721Z,10.11
2019-04-07T20:59:08.343Z,10.02
2019-04-07T21:04:12.747Z,9.98
2019-04-07T21:09:11.734Z,9.89
2019-04-07T21:14:11.179Z,9.78
2019-04-07T21:19:17.282Z,9.73
2019-04-07T21:24:33.551Z,9.73
2019-04-07T21:29:35.074Z,9.71
2019-04-07T21:34:43.351Z,9.64
2019-04-07T21:39:45.624Z,9.58
2019-04-07T21:44:51.600Z,9.42
2019-04-07T21:49:51.541Z,9.36
2019-04-07T21:55:09.868Z,9.38
2019-04-07T22:00:29.128Z,9.29
2019-04-07T22:05:42.191Z,9.24
2019-04-07T22:10:39.151Z,9.12
2019-04-07T22:15:46.320Z,8.96
2019-04-07T22:20:35.060Z,8.88
2019-04-07T22:25:38.349Z,8.85
2019-04-07T22:30:39.261Z,8.79
2019-04-07T22:35:39.443Z,8.57
2019-04-07T22:40:37.948Z,8.51
2019-04-07T22:45:35.017Z,8.53
2019-04-07T22:50:35.467Z,8.40
2019-04-07T22:55:31.257Z,8.21
2019-04-07T23:00:28.778Z,8.20
2019-04-07T23:05:26.115Z,8.25
2019-04-07T23:10:23.294Z,8.16
2019-04-07T23:15:20.774Z,8.06
2019-04-07T23:20:17.862Z,7.89
2019-04-07T23:25:15.507Z,7.81
2019-04-07T23:30:13.360Z,7.95
2019-04-07T23:35:10.935Z,7.89
2019-04-07T23:40:08.917Z,7.90
2019-04-07T23:45:06.424Z,7.78
2019-04-07T23:50:07.072Z,7.72
2019-04-07T23:55:04.346Z,7.78
